Time;durP1;ratioP1;P1;durP2;ratioP2;P2;SDS_P1;SDS_P2;PMS_P1;PMS_P2;Temp;Humidity;BMP_temperature;BMP_pressure;BME280_temperature;BME280_humidity;BME280_pressure;Samples;Min_cycle;Max_cycle;Signal;HPM_P1;HPM_P2
2021/11/21 00:01:03;;;;;;;13.57;10.50;;;22.70;36.50;;;;;;5040758;28;20455;-61
2021/11/21 00:03:31;;;;;;;14.75;10.73;;;22.70;36.50;;;;;;5045788;28;20090;-60
2021/11/21 00:05:59;;;;;;;14.88;11.23;;;22.70;36.50;;;;;;5045402;28;20891;-61
2021/11/21 00:08:26;;;;;;;16.00;10.95;;;22.70;36.50;;;;;;5045275;28;20177;-60
2021/11/21 00:10:53;;;;;;;13.10;10.60;;;22.70;36.50;;;;;;5042185;28;20056;-60
2021/11/21 00:13:20;;;;;;;16.65;10.50;;;22.70;36.50;;;;;;5056793;28;20097;-60
2021/11/21 00:15:48;;;;;;;14.82;10.57;;;22.70;36.50;;;;;;5063909;28;20506;-60
2021/11/21 00:18:15;;;;;;;15.40;10.75;;;22.70;36.50;;;;;;5045959;28;20871;-60
2021/11/21 00:20:44;;;;;;;13.93;10.52;;;22.70;36.50;;;;;;5043920;28;20124;-60
2021/11/21 00:23:11;;;;;;;15.02;10.82;;;22.70;36.50;;;;;;5043916;28;20482;-60
2021/11/21 00:25:39;;;;;;;14.02;10.63;;;22.70;36.50;;;;;;5044002;28;20137;-60
2021/11/21 00:28:06;;;;;;;14.50;10.88;;;22.70;36.50;;;;;;5043274;28;20102;-61
2021/11/21 00:30:34;;;;;;;15.70;10.85;;;22.70;36.50;;;;;;5047174;28;20468;-60
2021/11/21 00:33:02;;;;;;;15.00;9.60;;;22.70;36.50;;;;;;5039990;28;20110;-60
2021/11/21 00:35:29;;;;;;;13.27;10.45;;;22.70;36.60;;;;;;5048790;28;20106;-60
2021/11/21 00:37:58;;;;;;;12.93;10.18;;;22.70;36.60;;;;;;5048854;28;20056;-60
2021/11/21 00:40:26;;;;;;;15.30;10.05;;;22.70;36.50;;;;;;5047429;28;20045;-60
2021/11/21 00:42:57;;;;;;;13.43;10.52;;;22.70;36.50;;;;;;5052969;28;20101;-60
2021/11/21 00:45:26;;;;;;;14.30;9.93;;;22.70;36.50;;;;;;5068526;28;20079;-60
2021/11/21 00:47:53;;;;;;;14.20;9.63;;;22.70;36.50;;;;;;5069122;28;20056;-60
2021/11/21 00:50:27;;;;;;;13.68;10.10;;;22.70;36.50;;;;;;5069049;28;20097;-60
2021/11/21 00:53:02;;;;;;;13.80;10.18;;;22.70;36.50;;;;;;5050953;28;20055;-61
2021/11/21 00:55:38;;;;;;;14.38;10.07;;;22.70;36.50;;;;;;5068497;28;20048;-60
2021/11/21 00:58:09;;;;;;;13.27;9.65;;;22.70;36.50;;;;;;5070173;28;20079;-63
2021/11/21 01:00:40;;;;;;;14.90;10.55;;;22.70;36.50;;;;;;5068283;28;20501;-63
2021/11/21 01:03:09;;;;;;;12.98;10.07;;;22.70;36.50;;;;;;5061835;28;20059;-63
2021/11/21 01:05:36;;;;;;;13.10;9.75;;;22.70;37.10;;;;;;5068483;28;20097;-63
2021/11/21 01:08:03;;;;;;;15.77;9.98;;;22.70;36.50;;;;;;5068569;28;21084;-63
2021/11/21 01:10:32;;;;;;;13.63;9.70;;;22.70;36.50;;;;;;5068634;28;20080;-63
2021/11/21 01:12:59;;;;;;;12.95;9.35;;;22.60;36.50;;;;;;5045176;28;20076;-62
2021/11/21 01:15:27;;;;;;;13.68;10.40;;;22.60;36.50;;;;;;5048400;28;20719;-60
2021/11/21 01:17:56;;;;;;;14.13;9.93;;;22.60;36.50;;;;;;5048025;28;20497;-60
2021/11/21 01:20:25;;;;;;;12.77;9.18;;;22.60;36.50;;;;;;5048029;28;20159;-62
2021/11/21 01:22:53;;;;;;;15.07;10.50;;;22.60;36.50;;;;;;5044723;28;20493;-62
2021/11/21 01:25:21;;;;;;;13.85;10.02;;;22.60;36.50;;;;;;5047462;28;20136;-62
2021/11/21 01:27:49;;;;;;;13.85;9.57;;;22.60;36.50;;;;;;5047856;28;20118;-62
2021/11/21 01:30:24;;;;;;;13.68;9.80;;;22.60;36.50;;;;;;5047564;28;20349;-62
2021/11/21 01:32:52;;;;;;;13.07;10.05;;;22.60;36.50;;;;;;5044935;28;20897;-62
2021/11/21 01:35:20;;;;;;;12.43;9.15;;;22.60;36.50;;;;;;5067689;28;20048;-62
2021/11/21 01:37:48;;;;;;;13.07;9.75;;;22.60;36.50;;;;;;5067688;28;20470;-62
2021/11/21 01:40:17;;;;;;;15.15;9.68;;;22.60;36.50;;;;;;5067617;28;20565;-62
2021/11/21 01:42:46;;;;;;;13.85;9.57;;;22.60;36.50;;;;;;5040778;28;20052;-62
2021/11/21 01:45:13;;;;;;;13.13;9.88;;;22.60;36.50;;;;;;5047197;28;20469;-60
2021/11/21 01:47:44;;;;;;;13.50;9.27;;;22.60;36.50;;;;;;5047465;28;20139;-62
2021/11/21 01:50:12;;;;;;;;;;;22.60;37.10;;;;;;5047494;28;20098;-63
2021/11/21 01:52:44;;;;;;;14.60;10.65;;;22.60;36.50;;;;;;5045105;28;20019;-62
2021/11/21 01:55:11;;;;;;;11.90;8.93;;;22.60;36.50;;;;;;5047827;28;20740;-63
2021/11/21 01:57:39;;;;;;;12.25;9.57;;;22.60;36.60;;;;;;5047603;28;20136;-62
2021/11/21 02:00:09;;;;;;;12.77;9.70;;;22.50;36.50;;;;;;5047887;28;20128;-62
2021/11/21 02:02:36;;;;;;;10.63;8.68;;;22.50;36.50;;;;;;5044880;28;20104;-62
2021/11/21 02:05:04;;;;;;;12.30;8.77;;;22.50;36.50;;;;;;5065532;28;20570;-62
2021/11/21 02:07:31;;;;;;;11.60;9.38;;;22.50;36.50;;;;;;5066074;28;20088;-62
2021/11/21 02:09:58;;;;;;;13.90;9.77;;;22.50;36.60;;;;;;5066873;28;20047;-62
2021/11/21 02:12:26;;;;;;;11.85;9.02;;;22.60;36.60;;;;;;5052726;28;20078;-62
2021/11/21 02:14:54;;;;;;;13.25;8.73;;;22.50;36.50;;;;;;5046189;28;20059;-62
2021/11/21 02:17:25;;;;;;;12.27;9.35;;;22.50;36.50;;;;;;5045028;28;20468;-62
2021/11/21 02:19:53;;;;;;;13.10;9.23;;;22.50;36.50;;;;;;5046216;28;20406;-62
2021/11/21 02:22:21;;;;;;;13.10;8.82;;;22.50;36.50;;;;;;5049628;28;20091;-62
2021/11/21 02:24:48;;;;;;;11.27;8.77;;;22.60;36.60;;;;;;5065865;28;20180;-62
2021/11/21 02:27:22;;;;;;;13.70;8.55;;;22.50;36.50;;;;;;5066113;28;20135;-62
2021/11/21 02:29:49;;;;;;;14.02;9.82;;;22.50;36.50;;;;;;5065682;28;20614;-62
2021/11/21 02:32:16;;;;;;;11.27;8.43;;;22.50;36.50;;;;;;5045448;28;20110;-62
2021/11/21 02:34:43;;;;;;;11.48;8.05;;;22.50;36.50;;;;;;5046123;28;20131;-62
2021/11/21 02:37:10;;;;;;;12.95;9.20;;;22.50;36.60;;;;;;5044215;28;20132;-62
2021/11/21 02:39:39;;;;;;;13.05;9.18;;;22.50;36.60;;;;;;5045777;28;20139;-62
2021/11/21 02:42:07;;;;;;;11.63;8.73;;;22.50;36.60;;;;;;5043153;28;20135;-63
2021/11/21 02:44:35;;;;;;;11.80;8.15;;;22.50;36.60;;;;;;5046380;28;20064;-62
2021/11/21 02:47:03;;;;;;;11.65;8.20;;;22.50;36.60;;;;;;5045637;28;20056;-62
2021/11/21 02:49:31;;;;;;;10.63;7.78;;;22.50;36.50;;;;;;5045391;28;20056;-62
2021/11/21 02:51:58;;;;;;;12.30;8.32;;;22.60;36.60;;;;;;5044178;28;20056;-62
2021/11/21 02:54:26;;;;;;;12.30;8.45;;;22.50;36.50;;;;;;5044680;28;20103;-62
2021/11/21 02:56:53;;;;;;;11.35;8.57;;;22.50;36.50;;;;;;5044968;28;20502;-61
2021/11/21 02:59:25;;;;;;;10.73;7.80;;;22.50;36.50;;;;;;5045332;28;20105;-61
2021/11/21 03:01:53;;;;;;;11.18;8.60;;;22.50;36.50;;;;;;5049032;28;20162;-59
2021/11/21 03:04:24;;;;;;;11.52;8.13;;;22.50;36.50;;;;;;5063275;28;20505;-60
2021/11/21 03:06:51;;;;;;;12.15;8.35;;;22.50;36.60;;;;;;5066302;28;20055;-60
2021/11/21 03:09:22;;;;;;;10.27;7.97;;;22.50;36.50;;;;;;5065368;28;20080;-60
2021/11/21 03:11:53;;;;;;;10.32;7.60;;;22.50;36.50;;;;;;5054108;28;20076;-60
2021/11/21 03:14:21;;;;;;;10.50;7.50;;;22.50;36.50;;;;;;5060879;28;20062;-62
2021/11/21 03:16:48;;;;;;;10.52;7.95;;;22.50;36.60;;;;;;5055889;28;20139;-62
2021/11/21 03:19:15;;;;;;;10.30;7.95;;;22.50;36.50;;;;;;5044823;28;20048;-62
2021/11/21 03:21:43;;;;;;;10.35;7.53;;;22.50;36.50;;;;;;5039579;28;20121;-62
2021/11/21 03:24:10;;;;;;;8.63;7.05;;;22.50;36.50;;;;;;5041917;28;20452;-62
2021/11/21 03:26:38;;;;;;;10.18;6.97;;;22.50;36.50;;;;;;5044615;28;20052;-62
2021/11/21 03:29:05;;;;;;;9.50;7.32;;;22.40;36.50;;;;;;5044907;28;20052;-62
2021/11/21 03:31:34;;;;;;;10.45;7.63;;;22.40;36.50;;;;;;5039602;28;20106;-62
2021/11/21 03:34:02;;;;;;;10.10;7.28;;;22.50;36.50;;;;;;5043067;28;20052;-62
2021/11/21 03:36:30;;;;;;;8.82;7.18;;;22.40;36.50;;;;;;5045050;28;20071;-62
2021/11/21 03:38:58;;;;;;;9.57;6.65;;;22.50;36.50;;;;;;5044465;28;20139;-61
2021/11/21 03:41:26;;;;;;;9.48;7.18;;;22.40;36.50;;;;;;5043979;28;20070;-63
2021/11/21 03:43:53;;;;;;;8.80;6.63;;;22.40;36.50;;;;;;5057765;28;20520;-62
2021/11/21 03:46:22;;;;;;;9.40;7.00;;;22.40;36.50;;;;;;5064404;28;20436;-62
2021/11/21 03:48:50;;;;;;;9.15;6.47;;;22.40;36.50;;;;;;5064773;28;20062;-62
2021/11/21 03:51:18;;;;;;;9.95;7.47;;;22.40;36.50;;;;;;5055978;28;21034;-62
2021/11/21 03:53:45;;;;;;;8.98;7.03;;;22.40;36.50;;;;;;5039887;28;20466;-62
2021/11/21 03:56:13;;;;;;;11.40;7.18;;;22.40;36.50;;;;;;5044161;28;20136;-62
2021/11/21 03:58:40;;;;;;;8.98;6.75;;;22.40;36.50;;;;;;5044123;28;20057;-62
2021/11/21 04:01:08;;;;;;;11.25;7.30;;;22.40;36.50;;;;;;5041340;28;20140;-62
2021/11/21 04:03:35;;;;;;;9.10;6.45;;;22.40;36.50;;;;;;5052092;28;20393;-62
2021/11/21 04:06:02;;;;;;;8.82;6.97;;;22.40;36.50;;;;;;5063807;28;20043;-61
2021/11/21 04:08:29;;;;;;;9.77;7.40;;;22.40;36.50;;;;;;5064222;28;20079;-62
2021/11/21 04:10:57;;;;;;;8.93;6.72;;;22.40;36.50;;;;;;5060730;28;20561;-62
2021/11/21 04:13:24;;;;;;;9.18;7.40;;;22.40;36.50;;;;;;5043612;28;20052;-62
2021/11/21 04:15:52;;;;;;;9.40;6.90;;;22.40;36.50;;;;;;5043956;28;20156;-61
2021/11/21 04:18:19;;;;;;;10.00;6.93;;;22.40;36.50;;;;;;5043845;28;20147;-62
2021/11/21 04:20:47;;;;;;;8.60;6.75;;;22.40;36.50;;;;;;5024351;28;20145;-62
2021/11/21 04:23:15;;;;;;;9.18;7.45;;;22.40;36.50;;;;;;5050539;28;20114;-62
2021/11/21 04:25:42;;;;;;;7.32;6.10;;;22.40;36.50;;;;;;5043267;28;20122;-62
2021/11/21 04:28:09;;;;;;;7.82;6.22;;;22.40;36.50;;;;;;5043950;28;20106;-62
2021/11/21 04:30:36;;;;;;;7.30;6.07;;;22.40;36.50;;;;;;5043281;28;20102;-62
2021/11/21 04:33:04;;;;;;;8.15;6.53;;;22.40;36.50;;;;;;5047997;28;20128;-62
2021/11/21 04:35:32;;;;;;;9.65;6.55;;;22.40;36.50;;;;;;5062787;28;20048;-62
2021/11/21 04:37:59;;;;;;;7.97;6.13;;;22.40;36.50;;;;;;5064036;28;20131;-62
2021/11/21 04:40:27;;;;;;;6.07;5.47;;;22.40;36.50;;;;;;5064067;28;20109;-62
2021/11/21 04:42:54;;;;;;;10.18;6.70;;;22.40;36.50;;;;;;5038670;28;20429;-62
2021/11/21 04:45:21;;;;;;;7.32;6.13;;;22.40;36.50;;;;;;5043982;28;20139;-62
2021/11/21 04:47:49;;;;;;;8.65;6.22;;;22.40;36.40;;;;;;5043697;28;20177;-62
2021/11/21 04:50:16;;;;;;;7.43;5.95;;;22.40;36.40;;;;;;5043724;28;20486;-61
2021/11/21 04:52:43;;;;;;;8.73;6.00;;;22.40;36.40;;;;;;5047120;28;20646;-61
2021/11/21 04:55:12;;;;;;;7.57;5.95;;;22.40;36.40;;;;;;5064296;28;20734;-61
2021/11/21 04:57:41;;;;;;;7.88;6.22;;;22.40;36.40;;;;;;5062689;28;20052;-61
2021/11/21 05:00:15;;;;;;;7.88;6.60;;;22.40;36.40;;;;;;5064286;28;20044;-61
2021/11/21 05:02:45;;;;;;;8.13;6.22;;;22.40;36.40;;;;;;5044942;28;20052;-61
2021/11/21 05:05:14;;;;;;;7.88;6.13;;;22.40;36.40;;;;;;5044270;28;20497;-61
2021/11/21 05:07:41;;;;;;;7.78;5.93;;;22.40;36.40;;;;;;5043621;28;20063;-61
2021/11/21 05:10:09;;;;;;;10.25;7.03;;;22.40;36.40;;;;;;5043677;28;20138;-61
2021/11/21 05:12:39;;;;;;;8.90;6.63;;;22.40;36.40;;;;;;5041770;28;20052;-61
2021/11/21 05:15:08;;;;;;;8.23;6.07;;;22.40;36.40;;;;;;5043969;28;20059;-61
2021/11/21 05:17:36;;;;;;;7.47;5.82;;;22.30;36.40;;;;;;5045793;28;20135;-61
2021/11/21 05:20:05;;;;;;;7.75;6.25;;;22.30;36.30;;;;;;5046778;28;20056;-61
2021/11/21 05:22:32;;;;;;;6.88;5.40;;;22.30;36.40;;;;;;5039756;28;20048;-61
2021/11/21 05:24:59;;;;;;;7.90;5.55;;;22.40;36.40;;;;;;5046130;28;20087;-61
2021/11/21 05:27:26;;;;;;;7.40;5.78;;;22.30;36.40;;;;;;5046768;28;20562;-61
2021/11/21 05:29:54;;;;;;;7.65;5.68;;;22.30;36.40;;;;;;5047259;28;20114;-61
2021/11/21 05:32:22;;;;;;;7.57;5.88;;;22.30;36.40;;;;;;5038957;28;20584;-61
2021/11/21 05:34:51;;;;;;;6.75;5.47;;;22.30;36.40;;;;;;5046612;28;20125;-61
2021/11/21 05:37:19;;;;;;;7.70;5.97;;;22.30;36.40;;;;;;5047303;28;20132;-60
2021/11/21 05:39:46;;;;;;;7.07;5.55;;;22.30;36.40;;;;;;5046269;28;20080;-60
2021/11/21 05:42:13;;;;;;;7.82;6.30;;;22.30;36.40;;;;;;5044659;28;20080;-60
2021/11/21 05:44:40;;;;;;;7.65;5.50;;;22.30;36.40;;;;;;5046313;28;20117;-60
2021/11/21 05:47:07;;;;;;;6.38;5.53;;;22.30;36.40;;;;;;5046629;28;20098;-60
2021/11/21 05:49:35;;;;;;;6.72;5.50;;;22.30;36.40;;;;;;5046487;28;20091;-60
2021/11/21 05:52:02;;;;;;;6.65;5.65;;;22.30;36.40;;;;;;5044544;28;20214;-61
2021/11/21 05:54:31;;;;;;;6.35;5.45;;;22.30;36.40;;;;;;5066698;28;20094;-60
2021/11/21 05:56:58;;;;;;;6.35;5.13;;;22.30;36.40;;;;;;5066678;28;20079;-60
2021/11/21 05:59:25;;;;;;;7.57;6.00;;;22.30;36.40;;;;;;5066408;28;20055;-60
2021/11/21 06:01:52;;;;;;;7.15;5.45;;;22.30;36.40;;;;;;5056986;28;20456;-61
2021/11/21 06:04:19;;;;;;;7.10;5.20;;;22.30;36.40;;;;;;5063484;28;20090;-60
2021/11/21 06:06:46;;;;;;;7.05;5.68;;;22.30;36.30;;;;;;5066704;28;20090;-60
2021/11/21 06:09:13;;;;;;;7.57;5.30;;;22.30;36.30;;;;;;5029465;28;20127;-60
2021/11/21 06:11:40;;;;;;;7.20;5.70;;;22.30;36.20;;;;;;5028299;28;20320;-61
2021/11/21 06:14:08;;;;;;;7.82;5.70;;;22.30;36.00;;;;;;5063029;28;20056;-63
2021/11/21 06:16:35;;;;;;;6.20;5.10;;;22.30;36.00;;;;;;5066617;28;20056;-63
2021/11/21 06:19:03;;;;;;;7.13;5.38;;;22.30;35.80;;;;;;5042594;28;20052;-63
2021/11/21 06:21:30;;;;;;;7.40;5.28;;;22.30;35.70;;;;;;5045758;28;20515;-63
2021/11/21 06:23:57;;;;;;;6.90;5.47;;;22.40;35.60;;;;;;5047968;28;20056;-62
2021/11/21 06:26:24;;;;;;;7.82;6.00;;;22.40;35.40;;;;;;5046522;28;20092;-61
2021/11/21 06:28:53;;;;;;;7.20;5.35;;;22.40;35.30;;;;;;5045422;28;20140;-61
2021/11/21 06:31:21;;;;;;;7.00;5.57;;;22.40;35.10;;;;;;5042849;28;20464;-61
2021/11/21 06:33:49;;;;;;;6.53;5.57;;;22.50;34.90;;;;;;5009227;28;20160;-61
2021/11/21 06:36:16;;;;;;;7.18;5.53;;;22.50;34.70;;;;;;5045789;28;20521;-61
2021/11/21 06:38:43;;;;;;;6.43;5.13;;;22.60;34.60;;;;;;5046262;28;21094;-61
2021/11/21 06:41:10;;;;;;;5.82;4.93;;;22.60;34.50;;;;;;5043120;28;20132;-61
2021/11/21 06:43:37;;;;;;;7.03;5.15;;;22.70;34.40;;;;;;5046187;28;20052;-61
2021/11/21 06:46:05;;;;;;;7.88;5.90;;;22.70;34.30;;;;;;5044095;28;20080;-61
2021/11/21 06:48:34;;;;;;;7.50;4.93;;;22.80;34.20;;;;;;5044643;28;20091;-61
2021/11/21 06:51:01;;;;;;;6.25;5.07;;;22.80;34.00;;;;;;5043206;28;20147;-61
2021/11/21 06:53:30;;;;;;;7.18;5.38;;;22.80;33.90;;;;;;5042081;28;20053;-61
2021/11/21 06:55:57;;;;;;;8.57;5.82;;;22.90;33.90;;;;;;5046433;28;20584;-60
2021/11/21 06:58:27;;;;;;;7.30;5.35;;;22.90;33.80;;;;;;5045402;28;20091;-61
2021/11/21 07:00:55;;;;;;;9.02;6.10;;;23.00;33.80;;;;;;5042709;28;20143;-61
2021/11/21 07:03:22;;;;;;;8.65;5.55;;;23.00;33.70;;;;;;5037019;28;20058;-61
2021/11/21 07:05:49;;;;;;;7.05;5.22;;;23.00;33.60;;;;;;5066060;28;20390;-61
2021/11/21 07:08:16;;;;;;;6.88;5.10;;;23.10;33.60;;;;;;5066154;28;20056;-61
2021/11/21 07:10:46;;;;;;;9.45;6.03;;;23.20;33.50;;;;;;5064651;28;20052;-61
2021/11/21 07:13:13;;;;;;;6.30;5.03;;;23.20;33.50;;;;;;5046641;28;20482;-61
2021/11/21 07:15:41;;;;;;;6.80;5.75;;;23.20;33.30;;;;;;5044527;28;20052;-61
2021/11/21 07:18:08;;;;;;;8.50;6.63;;;23.30;33.40;;;;;;5045092;28;20086;-62
2021/11/21 07:20:35;;;;;;;7.70;6.32;;;23.30;33.20;;;;;;5043996;28;20579;-61
2021/11/21 07:23:02;;;;;;;6.22;5.63;;;23.30;33.20;;;;;;5043717;28;20052;-61
2021/11/21 07:25:30;;;;;;;8.23;6.10;;;23.40;33.10;;;;;;5043400;28;20078;-61
2021/11/21 07:27:58;;;;;;;6.97;5.72;;;23.40;33.00;;;;;;5044906;28;20129;-61
2021/11/21 07:30:25;;;;;;;6.85;5.85;;;23.50;33.00;;;;;;5044004;28;20106;-61
2021/11/21 07:32:54;;;;;;;8.20;6.43;;;23.50;33.00;;;;;;5044604;28;20143;-61
2021/11/21 07:35:22;;;;;;;9.48;6.72;;;23.60;33.00;;;;;;5064438;28;20048;-61
2021/11/21 07:37:50;;;;;;;7.88;6.22;;;23.60;32.90;;;;;;5065080;28;20086;-61
2021/11/21 07:40:18;;;;;;;9.45;6.95;;;23.60;32.90;;;;;;5064265;28;20101;-61
2021/11/21 07:42:45;;;;;;;7.03;6.22;;;23.60;32.80;;;;;;5039506;28;20052;-61
2021/11/21 07:45:13;;;;;;;8.75;6.90;;;23.70;32.70;;;;;;5044728;28;20131;-61
2021/11/21 07:47:41;;;;;;;10.70;8.10;;;23.70;32.70;;;;;;5043544;28;20671;-61
2021/11/21 07:50:10;;;;;;;8.80;7.15;;;23.80;32.60;;;;;;5044254;28;20071;-61
2021/11/21 07:52:37;;;;;;;9.02;7.13;;;23.80;32.60;;;;;;5047063;28;20048;-61
2021/11/21 07:55:05;;;;;;;8.27;6.78;;;23.80;32.50;;;;;;5065597;28;20052;-61
2021/11/21 07:57:33;;;;;;;8.45;7.03;;;23.80;32.40;;;;;;5064495;28;20052;-62
2021/11/21 08:00:00;;;;;;;8.57;6.25;;;23.90;32.40;;;;;;5064434;28;20047;-61
2021/11/21 08:02:28;;;;;;;8.32;6.53;;;23.90;32.30;;;;;;5053536;28;20083;-61
2021/11/21 08:04:55;;;;;;;10.75;8.40;;;24.00;32.30;;;;;;5063279;28;20092;-61
2021/11/21 08:07:22;;;;;;;9.43;7.78;;;24.00;32.30;;;;;;5064040;28;20151;-62
2021/11/21 08:09:50;;;;;;;10.75;7.80;;;24.10;32.30;;;;;;5064319;28;20386;-61
2021/11/21 08:12:17;;;;;;;12.85;9.70;;;24.10;32.20;;;;;;5053718;28;20485;-62
2021/11/21 08:14:45;;;;;;;11.48;8.93;;;24.10;32.10;;;;;;5044417;28;20048;-61
2021/11/21 08:17:13;;;;;;;13.43;9.18;;;24.20;32.10;;;;;;5044157;28;20084;-62
2021/11/21 08:19:40;;;;;;;12.38;9.32;;;24.20;32.00;;;;;;5044741;28;20126;-61
2021/11/21 08:22:08;;;;;;;11.57;9.30;;;24.30;32.10;;;;;;5041984;28;20052;-61
2021/11/21 08:24:35;;;;;;;13.50;9.68;;;24.30;32.00;;;;;;5044611;28;20048;-61
2021/11/21 08:27:02;;;;;;;12.45;9.30;;;24.40;32.00;;;;;;5044807;28;20144;-62
2021/11/21 08:29:30;;;;;;;12.65;10.02;;;24.40;31.90;;;;;;5044680;28;20765;-61
2021/11/21 08:31:58;;;;;;;11.93;9.00;;;24.40;31.90;;;;;;5048792;28;20501;-62
2021/11/21 08:34:28;;;;;;;14.13;9.60;;;24.40;31.90;;;;;;5043673;28;20143;-62
2021/11/21 08:36:56;;;;;;;11.60;9.23;;;24.50;32.00;;;;;;5042256;28;20497;-62
2021/11/21 08:39:23;;;;;;;12.93;9.63;;;24.50;32.00;;;;;;5044740;28;20421;-62
2021/11/21 08:41:52;;;;;;;12.95;9.68;;;24.50;32.00;;;;;;5037843;28;20056;-61
2021/11/21 08:44:21;;;;;;;13.43;9.50;;;24.60;32.00;;;;;;5060751;28;20121;-62
2021/11/21 08:46:48;;;;;;;13.20;9.85;;;24.60;32.00;;;;;;5064287;28;20135;-62
2021/11/21 08:49:16;;;;;;;12.18;9.07;;;24.60;32.00;;;;;;5064102;28;20142;-62
2021/11/21 08:51:45;;;;;;;12.52;8.77;;;24.60;32.10;;;;;;5054600;28;20782;-61
2021/11/21 08:54:15;;;;;;;9.95;8.02;;;24.70;32.00;;;;;;5065678;28;20066;-62
2021/11/21 08:56:43;;;;;;;10.05;8.15;;;24.70;32.00;;;;;;5068086;28;20113;-61
2021/11/21 08:59:10;;;;;;;9.73;7.57;;;24.70;32.00;;;;;;5067181;28;20140;-62
2021/11/21 09:01:38;;;;;;;11.18;9.13;;;24.80;32.10;;;;;;5054339;28;20544;-62
2021/11/21 09:04:05;;;;;;;9.27;7.82;;;24.80;32.10;;;;;;5062269;28;20044;-61
2021/11/21 09:06:33;;;;;;;10.75;8.02;;;24.80;32.10;;;;;;5067752;28;20464;-62
2021/11/21 09:09:00;;;;;;;8.75;7.13;;;24.90;32.10;;;;;;5066294;28;20052;-61
2021/11/21 09:11:28;;;;;;;10.02;7.57;;;24.90;32.10;;;;;;5056049;28;20087;-62
2021/11/21 09:13:55;;;;;;;9.38;7.22;;;24.90;32.00;;;;;;5060789;28;20098;-61
2021/11/21 09:16:23;;;;;;;9.80;7.68;;;24.90;32.00;;;;;;5061636;28;20048;-61
2021/11/21 09:18:50;;;;;;;9.48;7.03;;;25.00;32.10;;;;;;5047507;28;20132;-62
2021/11/21 09:21:18;;;;;;;8.93;7.05;;;25.00;32.00;;;;;;5043398;28;20149;-61
2021/11/21 09:23:46;;;;;;;7.47;6.40;;;25.10;32.10;;;;;;5057324;28;20055;-61
2021/11/21 09:26:14;;;;;;;8.93;6.78;;;25.00;32.00;;;;;;5067649;28;20080;-61
2021/11/21 09:28:42;;;;;;;7.15;5.63;;;25.10;32.00;;;;;;5067055;28;20044;-62
2021/11/21 09:31:09;;;;;;;7.40;6.25;;;25.10;32.00;;;;;;5061571;28;20086;-62
2021/11/21 09:33:36;;;;;;;9.13;6.68;;;25.10;32.00;;;;;;5041099;28;20578;-62
2021/11/21 09:36:08;;;;;;;7.75;6.20;;;25.20;32.00;;;;;;5047483;28;20060;-62
2021/11/21 09:38:35;;;;;;;8.38;6.43;;;25.20;32.00;;;;;;5047420;28;20133;-62
2021/11/21 09:41:03;;;;;;;8.25;6.00;;;25.20;32.00;;;;;;5044347;28;20048;-62
2021/11/21 09:43:31;;;;;;;6.93;5.47;;;25.20;31.90;;;;;;5055005;28;20071;-62
2021/11/21 09:45:59;;;;;;;7.78;6.10;;;25.20;31.90;;;;;;5067196;28;20047;-62
2021/11/21 09:48:30;;;;;;;7.45;5.85;;;25.30;32.00;;;;;;5066611;28;20055;-62
2021/11/21 09:50:57;;;;;;;;;;;25.30;31.90;;;;;;5060972;28;20121;-62
2021/11/21 09:53:24;;;;;;;6.65;5.53;;;25.40;32.00;;;;;;5047461;28;19924;-62
2021/11/21 09:55:52;;;;;;;5.93;5.10;;;25.40;32.00;;;;;;5046687;28;20051;-62
2021/11/21 09:58:19;;;;;;;7.35;5.63;;;25.40;32.00;;;;;;5046426;28;20139;-62
2021/11/21 10:00:48;;;;;;;5.78;4.80;;;25.40;31.90;;;;;;5044172;28;20053;-62
2021/11/21 10:03:18;;;;;;;11.50;5.22;;;25.40;31.90;;;;;;5036489;28;20394;-62
2021/11/21 10:05:50;;;;;;;6.22;4.75;;;25.40;31.90;;;;;;5046320;28;20052;-62
2021/11/21 10:08:24;;;;;;;5.68;4.70;;;25.50;31.90;;;;;;5044848;28;20520;-62
2021/11/21 10:11:10;;;;;;;5.55;4.45;;;25.50;31.90;;;;;;5042037;28;20127;-62
2021/11/21 10:13:41;;;;;;;5.93;4.80;;;25.50;31.90;;;;;;5043474;28;20134;-62
2021/11/21 10:16:35;;;;;;;5.40;4.60;;;25.50;31.90;;;;;;5046386;28;20649;-62
2021/11/21 10:19:06;;;;;;;5.20;4.50;;;25.60;31.90;;;;;;5045782;28;20574;-62
2021/11/21 10:21:36;;;;;;;5.28;4.05;;;25.60;31.90;;;;;;5046412;28;20051;-62
2021/11/21 10:24:27;;;;;;;5.72;4.72;;;25.60;31.90;;;;;;5046775;28;20056;-60
2021/11/21 10:27:04;;;;;;;5.45;4.32;;;25.60;31.80;;;;;;5046635;28;20053;-61
2021/11/21 10:29:35;;;;;;;4.80;4.07;;;25.60;31.80;;;;;;5045534;28;20099;-61
2021/11/21 10:32:16;;;;;;;5.45;4.28;;;25.60;31.80;;;;;;5044963;28;20048;-62
2021/11/21 10:35:05;;;;;;;4.80;4.00;;;25.70;31.90;;;;;;5045469;28;20048;-61
2021/11/21 10:37:37;;;;;;;6.03;4.63;;;25.70;31.80;;;;;;5045886;28;20063;-61
2021/11/21 10:40:08;;;;;;;4.53;4.00;;;25.70;31.80;;;;;;5045632;28;20098;-61
2021/11/21 10:42:37;;;;;;;4.72;4.00;;;25.70;31.80;;;;;;5044058;28;20060;-61
2021/11/21 10:45:06;;;;;;;4.22;3.83;;;25.70;31.80;;;;;;5045374;28;20102;-61
2021/11/21 10:47:49;;;;;;;6.07;4.25;;;25.70;31.80;;;;;;5045670;28;20505;-61
2021/11/21 10:50:32;;;;;;;5.07;4.20;;;25.60;31.90;;;;;;5044149;28;20091;-61
2021/11/21 10:53:03;;;;;;;3.97;3.58;;;25.60;31.90;;;;;;5038342;28;20045;-61
2021/11/21 10:55:30;;;;;;;;;;;25.60;31.90;;;;;;5025894;28;20076;-61
2021/11/21 10:58:10;;;;;;;5.15;4.30;;;25.50;31.90;;;;;;5025567;28;19931;-61
2021/11/21 11:00:38;;;;;;;4.75;3.83;;;25.50;32.00;;;;;;5023563;28;20501;-61
2021/11/21 11:03:19;;;;;;;4.30;3.67;;;25.50;32.10;;;;;;5043179;28;20121;-61
2021/11/21 11:05:47;;;;;;;4.70;4.10;;;25.40;32.00;;;;;;5044748;28;20501;-62
2021/11/21 11:08:26;;;;;;;3.78;3.47;;;25.40;32.00;;;;;;5027609;28;20052;-61
2021/11/21 11:10:54;;;;;;;4.72;4.20;;;25.40;32.10;;;;;;5040663;28;20048;-62
2021/11/21 11:13:23;;;;;;;4.00;3.50;;;25.40;32.10;;;;;;5046458;28;20506;-61
2021/11/21 11:15:54;;;;;;;4.80;4.18;;;25.40;32.20;;;;;;5045152;28;20127;-61
2021/11/21 11:18:22;;;;;;;4.28;3.60;;;25.30;32.20;;;;;;5045012;28;20079;-62
2021/11/21 11:20:57;;;;;;;4.20;3.80;;;25.30;32.20;;;;;;5042328;28;20052;-61
2021/11/21 11:23:25;;;;;;;3.83;3.53;;;25.30;32.90;;;;;;5046292;28;20056;-61
2021/11/21 11:25:58;;;;;;;4.53;3.97;;;25.30;32.30;;;;;;5045184;28;20048;-61
2021/11/21 11:28:29;;;;;;;3.92;3.13;;;25.30;32.40;;;;;;5045071;28;20160;-61
2021/11/21 11:30:58;;;;;;;4.00;3.70;;;25.30;32.30;;;;;;5024988;28;20061;-61
2021/11/21 11:33:36;;;;;;;3.60;3.30;;;25.20;32.30;;;;;;5057120;28;20048;-62
2021/11/21 11:36:22;;;;;;;3.80;3.50;;;25.20;32.30;;;;;;5064077;28;20084;-61
2021/11/21 11:39:06;;;;;;;4.20;3.80;;;25.20;32.30;;;;;;5064599;28;20941;-61
2021/11/21 11:41:53;;;;;;;4.45;4.00;;;25.20;33.00;;;;;;5053734;28;20043;-62
2021/11/21 11:44:21;;;;;;;4.72;3.35;;;25.20;32.40;;;;;;5043368;28;20138;-61
2021/11/21 11:46:50;;;;;;;3.72;3.30;;;25.10;32.40;;;;;;5044703;28;20060;-61
2021/11/21 11:49:37;;;;;;;3.42;3.05;;;25.10;32.40;;;;;;5044329;28;20049;-61
2021/11/21 11:52:05;;;;;;;4.10;3.33;;;25.10;32.40;;;;;;5042992;28;20566;-61
2021/11/21 11:54:32;;;;;;;5.05;4.28;;;25.10;32.50;;;;;;5044384;28;20056;-61
2021/11/21 11:57:03;;;;;;;4.80;3.58;;;25.10;32.50;;;;;;5045469;28;20087;-61
2021/11/21 11:59:47;;;;;;;3.78;3.45;;;25.10;32.50;;;;;;5044656;28;20059;-61
2021/11/21 12:02:37;;;;;;;3.72;3.42;;;25.10;32.50;;;;;;5036083;28;20449;-62
2021/11/21 12:05:05;;;;;;;4.13;3.72;;;25.10;32.50;;;;;;5042860;28;20048;-61
2021/11/21 12:07:36;;;;;;;4.03;3.63;;;25.10;32.50;;;;;;5044321;28;20052;-61
2021/11/21 12:10:05;;;;;;;;;;;25.10;32.50;;;;;;5044337;28;20091;-61
2021/11/21 12:13:10;;;;;;;4.40;3.57;;;25.10;32.50;;;;;;5041682;28;19925;-61
2021/11/21 12:15:51;;;;;;;4.53;3.85;;;25.10;32.60;;;;;;5044075;28;20668;-62
2021/11/21 12:18:20;;;;;;;4.40;3.40;;;25.10;32.60;;;;;;5024081;28;20573;-61
2021/11/21 12:20:52;;;;;;;4.47;4.00;;;25.10;32.60;;;;;;5022532;28;20049;-61
2021/11/21 12:23:59;;;;;;;4.50;4.03;;;25.00;32.60;;;;;;5053515;28;20052;-61
2021/11/21 12:26:37;;;;;;;4.18;3.60;;;25.00;32.60;;;;;;5062438;28;20109;-61
2021/11/21 12:29:29;;;;;;;4.35;3.95;;;25.00;32.60;;;;;;5064089;28;20083;-61
2021/11/21 12:32:16;;;;;;;4.30;3.90;;;25.00;32.70;;;;;;5058128;28;20141;-61
2021/11/21 12:34:44;;;;;;;3.40;3.10;;;25.00;32.70;;;;;;5074817;28;20404;-61
2021/11/21 12:37:25;;;;;;;5.05;3.75;;;25.00;32.70;;;;;;5064252;28;20470;-62
2021/11/21 12:39:57;;;;;;;4.10;3.70;;;25.00;32.80;;;;;;5064382;28;20056;-61
2021/11/21 12:42:28;;;;;;;3.58;3.28;;;25.00;32.80;;;;;;5050140;28;20071;-62
2021/11/21 12:45:12;;;;;;;4.35;3.53;;;25.00;32.80;;;;;;5065152;28;21051;-62
2021/11/21 12:47:43;;;;;;;4.18;3.60;;;24.90;33.30;;;;;;5063866;28;20048;-62
2021/11/21 12:50:38;;;;;;;4.63;4.10;;;24.90;32.80;;;;;;5063882;28;20511;-61
2021/11/21 12:53:08;;;;;;;5.32;3.80;;;24.90;32.80;;;;;;5044782;28;20080;-61
2021/11/21 12:55:42;;;;;;;3.80;3.40;;;24.90;32.80;;;;;;5044182;28;20195;-61